createdAt,value
2019-03-27T00:01:11.563Z,19.30
2019-03-27T00:03:41.035Z,19.23
2019-03-27T00:06:10.570Z,16.40
2019-03-27T00:08:40.027Z,22.70
2019-03-27T00:11:09.482Z,24.70
2019-03-27T00:13:38.867Z,27.83
2019-03-27T00:16:08.323Z,29.33
2019-03-27T00:18:37.766Z,21.77
2019-03-27T00:21:07.819Z,25.17
2019-03-27T00:23:37.351Z,21.23
2019-03-27T00:26:06.807Z,18.90
2019-03-27T00:28:36.269Z,19.53
2019-03-27T00:31:05.692Z,21.83
2019-03-27T00:33:35.084Z,22.73
2019-03-27T00:36:04.571Z,23.37
2019-03-27T00:38:34.039Z,24.53
2019-03-27T00:41:03.534Z,16.37
2019-03-27T00:43:33.583Z,23.73
2019-03-27T00:46:02.945Z,22.80
2019-03-27T00:48:32.404Z,21.77
2019-03-27T00:51:21.160Z,26.67
2019-03-27T00:53:50.613Z,17.40
2019-03-27T00:56:20.080Z,22.63
2019-03-27T00:58:49.567Z,19.67
2019-03-27T01:01:18.983Z,27.10
2019-03-27T01:03:48.354Z,20.43
2019-03-27T01:06:17.938Z,23.67
2019-03-27T01:08:47.464Z,23.50
2019-03-27T01:11:16.973Z,18.90
2019-03-27T01:13:46.440Z,23.13
2019-03-27T01:16:15.923Z,19.40
2019-03-27T01:18:45.379Z,26.03
2019-03-27T01:21:14.842Z,16.30
2019-03-27T01:23:44.315Z,22.53
2019-03-27T01:26:13.703Z,17.90
2019-03-27T01:28:43.099Z,18.87
2019-03-27T01:31:14.108Z,18.83
2019-03-27T01:33:43.567Z,19.80
2019-03-27T01:36:13.320Z,20.73
2019-03-27T01:38:42.710Z,15.57
2019-03-27T01:41:12.139Z,20.90
2019-03-27T01:43:41.838Z,18.47
2019-03-27T01:46:11.275Z,23.97
2019-03-27T01:48:40.804Z,15.50
2019-03-27T01:51:10.225Z,17.47
2019-03-27T01:53:39.608Z,16.93
2019-03-27T01:56:09.060Z,24.10
2019-03-27T01:58:38.438Z,18.23
2019-03-27T02:01:08.128Z,21.57
2019-03-27T02:03:37.609Z,18.70
2019-03-27T02:06:06.996Z,19.57
2019-03-27T02:08:36.394Z,19.63
2019-03-27T02:11:05.932Z,21.63
2019-03-27T02:13:35.455Z,27.40
2019-03-27T02:16:07.092Z,29.50
2019-03-27T02:18:36.275Z,30.07
2019-03-27T02:21:05.796Z,21.10
2019-03-27T02:23:35.246Z,21.63
2019-03-27T02:26:05.458Z,22.17
2019-03-27T02:28:35.294Z,21.50
2019-03-27T02:31:05.945Z,29.77
2019-03-27T02:33:35.393Z,25.50
2019-03-27T02:36:05.155Z,20.80
2019-03-27T02:38:34.553Z,28.27
2019-03-27T02:41:04.204Z,23.47
2019-03-27T02:43:33.656Z,18.33
2019-03-27T02:46:03.119Z,19.73
2019-03-27T02:48:32.835Z,23.40
2019-03-27T02:51:03.975Z,16.03
2019-03-27T02:53:33.443Z,20.33
2019-03-27T02:56:02.965Z,23.70
2019-03-27T02:58:32.336Z,19.67
2019-03-27T03:01:01.805Z,18.57
2019-03-27T03:03:31.273Z,19.83
2019-03-27T03:06:01.245Z,22.57
2019-03-27T03:08:30.691Z,11.90
2019-03-27T03:11:00.159Z,12.93
2019-03-27T03:13:29.608Z,18.80
2019-03-27T03:15:59.067Z,22.43
2019-03-27T03:18:28.462Z,20.33
2019-03-27T03:20:57.848Z,19.97
2019-03-27T03:23:27.296Z,16.97
2019-03-27T03:25:57.016Z,20.53
2019-03-27T03:28:26.503Z,26.80
2019-03-27T03:30:55.951Z,19.37
2019-03-27T03:33:25.405Z,15.10
2019-03-27T03:35:56.504Z,17.93
2019-03-27T03:38:25.864Z,16.70
2019-03-27T03:40:56.350Z,16.23
2019-03-27T03:43:25.831Z,18.30
2019-03-27T03:45:55.225Z,17.70
2019-03-27T03:48:24.639Z,21.90
2019-03-27T03:50:57.140Z,23.37
2019-03-27T03:53:26.822Z,18.60
2019-03-27T03:55:57.134Z,15.30
2019-03-27T03:58:28.604Z,16.80
2019-03-27T04:01:00.912Z,17.77
2019-03-27T04:03:32.217Z,20.43
2019-03-27T04:06:01.599Z,23.53
2019-03-27T04:08:31.042Z,13.57
2019-03-27T04:11:01.900Z,15.43
2019-03-27T04:13:31.289Z,25.97
2019-03-27T04:16:01.012Z,19.73
2019-03-27T04:18:43.540Z,23.37
2019-03-27T04:21:12.943Z,18.10
2019-03-27T04:23:42.325Z,23.77
2019-03-27T04:26:11.728Z,25.20
2019-03-27T04:28:41.185Z,25.27
2019-03-27T04:31:10.631Z,23.90
2019-03-27T04:33:40.087Z,27.00
2019-03-27T04:36:09.543Z,24.43
2019-03-27T04:38:39.002Z,27.70
2019-03-27T04:41:08.453Z,18.60
2019-03-27T04:43:37.870Z,27.03
2019-03-27T04:46:07.312Z,22.10
2019-03-27T04:48:36.769Z,24.73
2019-03-27T04:51:06.290Z,20.70
2019-03-27T04:53:35.656Z,22.50
2019-03-27T04:56:05.114Z,17.77
2019-03-27T04:58:34.624Z,21.10
2019-03-27T05:01:04.084Z,32.60
2019-03-27T05:03:33.836Z,25.83
2019-03-27T05:06:03.378Z,25.03
2019-03-27T05:08:32.822Z,28.37
2019-03-27T05:11:02.239Z,36.17
2019-03-27T05:13:31.750Z,23.07
2019-03-27T05:16:16.068Z,22.90
2019-03-27T05:18:45.593Z,26.80
2019-03-27T05:21:16.670Z,31.00
2019-03-27T05:23:46.265Z,21.27
2019-03-27T05:26:15.611Z,21.63
2019-03-27T05:28:45.012Z,28.50
2019-03-27T05:31:14.448Z,29.27
2019-03-27T05:33:44.005Z,26.80
2019-03-27T05:36:13.428Z,24.57
2019-03-27T05:38:42.892Z,24.07
2019-03-27T05:41:12.253Z,19.63
2019-03-27T05:43:41.635Z,21.40
2019-03-27T05:46:10.992Z,23.37
2019-03-27T05:48:40.383Z,27.90
2019-03-27T05:51:09.817Z,23.63
2019-03-27T05:53:39.266Z,35.87
2019-03-27T05:56:08.624Z,25.67
2019-03-27T05:58:38.258Z,31.83
2019-03-27T06:01:08.123Z,23.83
2019-03-27T06:03:37.591Z,31.50
2019-03-27T06:06:07.110Z,28.03
2019-03-27T06:08:36.577Z,27.80
2019-03-27T06:11:06.033Z,25.07
2019-03-27T06:13:35.414Z,27.90
2019-03-27T06:16:06.320Z,27.40
2019-03-27T06:18:35.925Z,20.17
2019-03-27T06:21:05.378Z,21.57
2019-03-27T06:23:36.374Z,26.03
2019-03-27T06:26:05.819Z,20.00
2019-03-27T06:28:36.013Z,23.07
2019-03-27T06:31:05.464Z,27.00
2019-03-27T06:33:34.839Z,21.47
2019-03-27T06:36:04.380Z,17.33
2019-03-27T06:38:46.695Z,17.93
2019-03-27T06:41:16.194Z,18.87
2019-03-27T06:43:45.575Z,14.37
2019-03-27T06:46:15.056Z,14.20
2019-03-27T06:48:44.522Z,11.73
2019-03-27T06:51:13.933Z,14.87
2019-03-27T06:53:43.719Z,12.87
2019-03-27T06:56:13.067Z,16.43
2019-03-27T06:58:54.034Z,16.33
2019-03-27T07:01:13.548Z,16.17
2019-03-27T07:03:42.993Z,18.80
2019-03-27T07:06:12.437Z,14.57
2019-03-27T07:08:41.804Z,16.40
2019-03-27T07:11:11.267Z,15.83
2019-03-27T07:13:40.687Z,14.70
2019-03-27T07:16:10.091Z,13.00
2019-03-27T07:18:40.619Z,15.03
2019-03-27T07:21:10.164Z,12.43
2019-03-27T07:23:39.772Z,10.93
2019-03-27T07:26:09.253Z,14.97
2019-03-27T07:28:38.677Z,16.30
2019-03-27T07:31:08.089Z,12.57
2019-03-27T07:33:37.511Z,11.50
2019-03-27T07:36:06.959Z,13.00
2019-03-27T07:38:36.405Z,11.13
2019-03-27T07:41:05.873Z,9.77
2019-03-27T07:43:35.321Z,14.67
2019-03-27T07:46:04.790Z,11.47
2019-03-27T07:48:34.325Z,10.97
2019-03-27T07:51:04.094Z,9.73
2019-03-27T07:53:33.634Z,9.87
2019-03-27T07:56:03.243Z,9.93
2019-03-27T07:58:32.753Z,11.83
2019-03-27T08:01:02.145Z,11.33
2019-03-27T08:03:31.607Z,11.20
2019-03-27T08:06:01.059Z,9.90
2019-03-27T08:08:30.605Z,12.77
2019-03-27T08:11:00.072Z,9.77
2019-03-27T08:13:29.515Z,9.87
2019-03-27T08:15:59.028Z,10.07
2019-03-27T08:18:28.474Z,9.83
2019-03-27T08:20:57.945Z,12.07
2019-03-27T08:23:27.486Z,9.80
2019-03-27T08:25:57.031Z,12.30
2019-03-27T08:28:27.541Z,12.13
2019-03-27T08:30:56.926Z,11.73
2019-03-27T08:33:26.347Z,9.13
2019-03-27T08:35:55.762Z,9.93
2019-03-27T08:38:25.414Z,10.03
2019-03-27T08:40:54.869Z,11.33
2019-03-27T08:43:25.717Z,6.50
2019-03-27T08:45:55.654Z,11.30
2019-03-27T08:48:25.648Z,8.77
2019-03-27T08:50:55.188Z,6.27
2019-03-27T08:53:37.363Z,8.27
2019-03-27T08:56:06.872Z,9.57
2019-03-27T08:58:37.997Z,11.87
2019-03-27T09:01:07.375Z,8.13
2019-03-27T09:03:36.906Z,9.77
2019-03-27T09:06:06.315Z,7.27
2019-03-27T09:08:35.991Z,8.03
2019-03-27T09:11:05.480Z,9.07
2019-03-27T09:13:34.979Z,12.43
2019-03-27T09:16:04.611Z,7.27
2019-03-27T09:18:34.014Z,11.37
2019-03-27T09:21:03.368Z,8.73
2019-03-27T09:23:32.734Z,6.83
2019-03-27T09:26:02.115Z,8.37
2019-03-27T09:28:31.502Z,8.40
2019-03-27T09:31:00.926Z,7.37
2019-03-27T09:33:30.388Z,8.30
2019-03-27T09:35:59.920Z,10.73
2019-03-27T09:38:29.528Z,6.40
2019-03-27T09:40:59.015Z,9.60
2019-03-27T09:43:28.378Z,9.30
2019-03-27T09:45:57.875Z,7.03
2019-03-27T09:48:28.155Z,5.87
2019-03-27T09:50:57.676Z,6.20
2019-03-27T09:53:27.067Z,7.10
2019-03-27T09:55:56.528Z,7.90
2019-03-27T09:58:26.277Z,7.07
2019-03-27T10:00:56.688Z,8.87
2019-03-27T10:03:27.750Z,7.83
2019-03-27T10:05:57.283Z,6.97
2019-03-27T10:08:26.761Z,8.13
2019-03-27T10:10:56.880Z,6.90
2019-03-27T10:13:26.490Z,7.10
2019-03-27T10:15:56.174Z,5.80
2019-03-27T10:18:25.693Z,6.87
2019-03-27T10:20:56.619Z,7.93
2019-03-27T10:23:26.055Z,5.90
2019-03-27T10:25:55.519Z,7.60
2019-03-27T10:28:24.979Z,7.03
2019-03-27T10:30:54.543Z,10.77
2019-03-27T10:33:24.038Z,6.80
2019-03-27T10:35:53.614Z,7.80
2019-03-27T10:38:23.050Z,6.47
2019-03-27T10:40:52.640Z,10.67
2019-03-27T10:43:22.239Z,9.90
2019-03-27T10:45:51.774Z,6.47
2019-03-27T10:48:21.243Z,7.60
2019-03-27T10:50:50.719Z,8.00
2019-03-27T10:53:20.182Z,9.10
2019-03-27T10:55:49.569Z,7.67
2019-03-27T10:58:19.381Z,9.57
2019-03-27T11:00:48.930Z,8.33
2019-03-27T11:03:18.404Z,10.50
2019-03-27T11:05:47.785Z,8.57
2019-03-27T11:08:17.329Z,9.00
2019-03-27T11:10:46.891Z,6.10
2019-03-27T11:13:16.327Z,7.30
2019-03-27T11:15:45.788Z,6.93
2019-03-27T11:18:15.307Z,9.50
2019-03-27T11:20:44.888Z,5.13
2019-03-27T11:23:14.268Z,6.77
2019-03-27T11:25:43.636Z,9.43
2019-03-27T11:28:13.016Z,10.20
2019-03-27T11:30:42.862Z,9.70
2019-03-27T11:33:12.440Z,6.20
2019-03-27T11:35:42.126Z,8.00
2019-03-27T11:38:11.732Z,6.97
2019-03-27T11:40:42.692Z,6.63
2019-03-27T11:43:12.179Z,9.13
2019-03-27T11:45:41.626Z,6.17
2019-03-27T11:48:11.197Z,8.53
2019-03-27T11:50:45.177Z,9.30
2019-03-27T11:53:11.784Z,13.23
2019-03-27T11:55:41.160Z,6.03
2019-03-27T11:58:10.595Z,9.63
2019-03-27T12:00:53.530Z,8.73
2019-03-27T12:03:11.191Z,11.20
2019-03-27T12:05:40.692Z,7.57
2019-03-27T12:08:10.222Z,9.63
2019-03-27T12:10:40.069Z,9.40
2019-03-27T12:13:11.298Z,8.90
2019-03-27T12:15:41.608Z,9.47
2019-03-27T12:18:12.110Z,6.83
2019-03-27T12:20:42.067Z,9.50
2019-03-27T12:23:11.684Z,8.87
2019-03-27T12:25:41.216Z,8.60
2019-03-27T12:28:10.775Z,11.67
2019-03-27T12:30:40.308Z,10.43
2019-03-27T12:33:10.019Z,15.27
2019-03-27T12:35:39.472Z,8.67
2019-03-27T12:38:08.940Z,8.63
2019-03-27T12:40:38.863Z,8.03
2019-03-27T12:43:09.867Z,11.13
2019-03-27T12:45:39.251Z,9.90
2019-03-27T12:48:08.856Z,7.83
2019-03-27T12:50:38.587Z,5.63
2019-03-27T12:53:08.106Z,9.83
2019-03-27T12:55:37.549Z,6.03
2019-03-27T12:58:07.086Z,8.20
2019-03-27T13:00:36.815Z,9.43
2019-03-27T13:03:06.374Z,9.50
2019-03-27T13:05:35.980Z,9.53
2019-03-27T13:08:05.508Z,10.87
2019-03-27T13:10:35.003Z,10.60
2019-03-27T13:13:04.636Z,10.93
2019-03-27T13:15:34.250Z,11.13
2019-03-27T13:18:03.770Z,11.53
2019-03-27T13:20:33.273Z,11.50
2019-03-27T13:23:02.723Z,10.47
2019-03-27T13:25:32.380Z,11.07
2019-03-27T13:28:01.843Z,15.13
2019-03-27T13:30:31.290Z,16.73
2019-03-27T13:33:00.650Z,14.03
2019-03-27T13:35:30.112Z,10.37
2019-03-27T13:37:59.459Z,14.10
2019-03-27T13:40:30.506Z,11.33
2019-03-27T13:42:59.923Z,9.60
2019-03-27T13:45:29.377Z,8.27
2019-03-27T13:47:58.727Z,9.90
2019-03-27T13:50:28.243Z,12.47
2019-03-27T13:52:57.736Z,10.70
2019-03-27T13:55:27.201Z,13.47
2019-03-27T13:57:56.595Z,10.50
2019-03-27T14:00:26.224Z,11.67
2019-03-27T14:02:55.712Z,7.67
2019-03-27T14:05:25.200Z,10.53
2019-03-27T14:07:54.624Z,8.40
2019-03-27T14:10:24.265Z,8.87
2019-03-27T14:12:53.658Z,7.37
2019-03-27T14:15:23.339Z,11.37
2019-03-27T14:17:52.835Z,10.73
2019-03-27T14:20:22.436Z,9.63
2019-03-27T14:22:51.866Z,11.50
2019-03-27T14:25:22.932Z,9.10
2019-03-27T14:27:52.361Z,10.53
2019-03-27T14:30:27.702Z,10.40
2019-03-27T14:32:57.301Z,10.53
2019-03-27T14:35:26.719Z,10.03
2019-03-27T14:37:56.083Z,7.83
2019-03-27T14:40:25.680Z,10.73
2019-03-27T14:42:55.171Z,11.57
2019-03-27T14:45:24.632Z,8.70
2019-03-27T14:47:54.073Z,12.53
2019-03-27T14:50:23.701Z,9.90
2019-03-27T14:52:53.055Z,12.07
2019-03-27T14:55:22.446Z,10.57
2019-03-27T14:57:51.834Z,12.03
2019-03-27T15:00:21.739Z,8.13
2019-03-27T15:02:52.847Z,7.67
2019-03-27T15:05:22.403Z,8.53
2019-03-27T15:07:51.868Z,10.20
2019-03-27T15:10:21.471Z,10.57
2019-03-27T15:12:50.832Z,11.60
2019-03-27T15:15:20.430Z,11.07
2019-03-27T15:17:49.863Z,7.53
2019-03-27T15:20:19.401Z,11.50
2019-03-27T15:22:48.774Z,10.10
2019-03-27T15:25:18.171Z,11.60
2019-03-27T15:27:47.779Z,12.37
2019-03-27T15:30:19.076Z,9.37
2019-03-27T15:32:48.546Z,9.57
2019-03-27T15:35:17.922Z,7.63
2019-03-27T15:37:47.419Z,8.40
2019-03-27T15:40:20.988Z,12.30
2019-03-27T15:42:50.393Z,14.13
2019-03-27T15:45:19.927Z,13.57
2019-03-27T15:47:49.451Z,9.97
2019-03-27T15:50:18.861Z,9.97
2019-03-27T15:52:48.394Z,9.07
2019-03-27T15:55:17.912Z,10.07
2019-03-27T15:57:47.306Z,9.20
2019-03-27T16:00:16.928Z,11.77
2019-03-27T16:02:46.399Z,9.13
2019-03-27T16:05:15.989Z,9.83
2019-03-27T16:07:45.376Z,7.23
2019-03-27T16:10:18.099Z,10.20
2019-03-27T16:12:45.911Z,12.83
2019-03-27T16:15:15.637Z,9.73
2019-03-27T16:17:46.246Z,7.73
2019-03-27T16:20:15.708Z,8.33
2019-03-27T16:22:51.038Z,10.00
2019-03-27T16:25:16.560Z,12.20
2019-03-27T16:27:47.592Z,9.10
2019-03-27T16:30:18.789Z,12.20
2019-03-27T16:33:01.450Z,16.87
2019-03-27T16:35:30.833Z,6.20
2019-03-27T16:38:00.270Z,8.17
2019-03-27T16:40:46.335Z,9.90
2019-03-27T16:43:15.988Z,8.33
2019-03-27T16:45:45.552Z,8.73
2019-03-27T16:48:15.253Z,8.70
2019-03-27T16:50:44.823Z,10.97
2019-03-27T16:53:14.383Z,6.77
2019-03-27T16:55:44.073Z,11.43
2019-03-27T16:58:13.544Z,8.60
2019-03-27T17:00:43.005Z,10.77
2019-03-27T17:03:12.518Z,8.30
2019-03-27T17:05:53.295Z,9.13
2019-03-27T17:08:13.037Z,10.73
2019-03-27T17:10:42.496Z,12.13
2019-03-27T17:13:12.807Z,10.53
2019-03-27T17:15:42.351Z,9.13
2019-03-27T17:18:11.837Z,11.50
2019-03-27T17:20:41.369Z,14.50
2019-03-27T17:23:18.375Z,10.07
2019-03-27T17:25:43.559Z,12.13
2019-03-27T17:28:13.041Z,8.67
2019-03-27T17:30:42.507Z,11.90
2019-03-27T17:33:11.868Z,9.73
2019-03-27T17:35:41.413Z,10.33
2019-03-27T17:38:11.143Z,10.67
2019-03-27T17:40:40.880Z,9.30
2019-03-27T17:43:10.301Z,9.50
2019-03-27T17:45:39.897Z,10.80
2019-03-27T17:48:09.391Z,12.93
2019-03-27T17:50:38.992Z,10.67
2019-03-27T17:53:08.411Z,11.13
2019-03-27T17:55:38.087Z,9.90
2019-03-27T17:58:07.575Z,13.77
2019-03-27T18:00:44.027Z,10.83
2019-03-27T18:03:13.525Z,9.07
2019-03-27T18:05:43.140Z,8.87
2019-03-27T18:08:12.722Z,15.30
2019-03-27T18:10:42.260Z,14.27
2019-03-27T18:13:11.845Z,9.40
2019-03-27T18:15:41.297Z,9.10
2019-03-27T18:18:10.694Z,9.23
2019-03-27T18:20:40.151Z,12.40
2019-03-27T18:23:09.722Z,11.50
2019-03-27T18:25:39.248Z,9.37
2019-03-27T18:28:08.639Z,14.63
2019-03-27T18:30:38.208Z,12.83
2019-03-27T18:33:07.651Z,12.80
2019-03-27T18:35:37.036Z,12.73
2019-03-27T18:38:06.632Z,9.70
2019-03-27T18:40:36.141Z,12.63
2019-03-27T18:43:05.603Z,15.83
2019-03-27T18:45:35.009Z,13.33
2019-03-27T18:48:06.396Z,18.80
2019-03-27T18:50:35.768Z,13.93
2019-03-27T18:53:24.487Z,13.57
2019-03-27T18:56:06.842Z,11.77
2019-03-27T18:58:37.740Z,18.07
2019-03-27T19:01:07.498Z,14.43
2019-03-27T19:03:37.019Z,26.30
2019-03-27T19:06:06.501Z,16.73
2019-03-27T19:08:36.036Z,13.27
2019-03-27T19:11:05.659Z,13.00
2019-03-27T19:13:35.192Z,12.17
2019-03-27T19:16:06.171Z,14.40
2019-03-27T19:18:35.692Z,15.00
2019-03-27T19:21:05.296Z,13.77
2019-03-27T19:23:36.529Z,13.27
2019-03-27T19:26:06.274Z,13.20
2019-03-27T19:28:35.949Z,13.93
2019-03-27T19:31:05.756Z,13.67
2019-03-27T19:33:35.360Z,14.30
2019-03-27T19:36:05.205Z,15.70
2019-03-27T19:38:34.810Z,13.53
2019-03-27T19:41:04.639Z,16.13
2019-03-27T19:43:34.331Z,16.03
2019-03-27T19:46:03.857Z,15.20
2019-03-27T19:48:33.385Z,10.77
2019-03-27T19:51:03.622Z,13.53
2019-03-27T19:53:33.143Z,13.77
2019-03-27T19:56:02.863Z,17.63
2019-03-27T19:58:32.377Z,18.43
2019-03-27T20:01:01.846Z,13.70
2019-03-27T20:03:34.477Z,15.97
2019-03-27T20:06:02.499Z,12.70
2019-03-27T20:08:31.969Z,20.60
2019-03-27T20:11:01.454Z,18.33
2019-03-27T20:13:30.917Z,20.77
2019-03-27T20:16:00.508Z,17.90
2019-03-27T20:18:29.981Z,15.03
2019-03-27T20:20:59.368Z,16.93
2019-03-27T20:23:28.926Z,14.03
2019-03-27T20:25:58.383Z,16.00
2019-03-27T20:28:27.884Z,17.43
2019-03-27T20:30:57.280Z,19.27
2019-03-27T20:33:26.803Z,15.07
2019-03-27T20:35:56.291Z,19.03
2019-03-27T20:38:25.773Z,17.27
2019-03-27T20:40:55.300Z,18.30
2019-03-27T20:43:26.399Z,19.77
2019-03-27T20:45:55.804Z,19.67
2019-03-27T20:48:25.302Z,15.57
2019-03-27T20:50:54.767Z,17.83
2019-03-27T20:53:24.165Z,22.43
2019-03-27T20:55:53.766Z,21.60
2019-03-27T20:58:23.184Z,19.13
2019-03-27T21:00:52.936Z,14.53
2019-03-27T21:03:22.366Z,23.13
2019-03-27T21:05:51.830Z,19.53
2019-03-27T21:08:21.490Z,19.30
2019-03-27T21:10:51.617Z,20.77
2019-03-27T21:13:21.014Z,24.50
2019-03-27T21:15:50.495Z,21.33
2019-03-27T21:18:20.023Z,22.13
2019-03-27T21:20:49.848Z,25.13
2019-03-27T21:23:20.736Z,22.60
2019-03-27T21:25:50.824Z,23.20
2019-03-27T21:28:20.344Z,20.67
2019-03-27T21:30:49.889Z,23.60
2019-03-27T21:33:22.202Z,29.27
2019-03-27T21:35:51.915Z,25.53
2019-03-27T21:38:21.387Z,23.50
2019-03-27T21:40:51.228Z,23.97
2019-03-27T21:43:20.777Z,25.73
2019-03-27T21:45:50.804Z,25.00
2019-03-27T21:48:20.358Z,20.60
2019-03-27T21:50:49.939Z,25.37
2019-03-27T21:53:19.470Z,24.17
2019-03-27T21:55:48.969Z,24.77
2019-03-27T21:58:18.424Z,25.40
2019-03-27T22:00:47.948Z,24.63
2019-03-27T22:03:17.408Z,20.40
2019-03-27T22:05:46.960Z,29.13
2019-03-27T22:08:16.430Z,22.43
2019-03-27T22:10:46.043Z,34.17
2019-03-27T22:13:17.163Z,27.03
2019-03-27T22:15:46.652Z,27.67
2019-03-27T22:18:16.230Z,27.90
2019-03-27T22:20:45.714Z,30.07
2019-03-27T22:23:15.191Z,25.20
2019-03-27T22:25:44.751Z,26.27
2019-03-27T22:28:14.253Z,25.97
2019-03-27T22:30:43.784Z,36.80
2019-03-27T22:33:13.242Z,30.37
2019-03-27T22:35:42.733Z,28.57
2019-03-27T22:38:12.451Z,30.10
2019-03-27T22:40:41.892Z,34.27
2019-03-27T22:43:11.450Z,27.67
2019-03-27T22:45:40.978Z,28.70
2019-03-27T22:48:12.110Z,31.70
2019-03-27T22:50:41.638Z,34.67
2019-03-27T22:53:11.105Z,31.53
2019-03-27T22:55:49.755Z,29.07
2019-03-27T22:58:13.129Z,31.17
2019-03-27T23:00:50.024Z,34.57
2019-03-27T23:03:19.677Z,37.30
2019-03-27T23:05:49.218Z,35.23
2019-03-27T23:08:19.164Z,26.97
2019-03-27T23:10:48.856Z,30.07
2019-03-27T23:13:18.409Z,32.23
2019-03-27T23:15:48.032Z,33.93
2019-03-27T23:18:17.533Z,35.10
2019-03-27T23:20:47.169Z,45.07
2019-03-27T23:23:16.861Z,36.50
2019-03-27T23:25:46.488Z,32.33
2019-03-27T23:28:15.977Z,33.43
2019-03-27T23:30:45.475Z,33.63
2019-03-27T23:33:15.009Z,32.37
2019-03-27T23:35:44.668Z,34.83
2019-03-27T23:38:14.253Z,32.10
2019-03-27T23:40:43.755Z,34.07
2019-03-27T23:43:13.309Z,36.27
2019-03-27T23:45:42.764Z,29.07
2019-03-27T23:48:12.343Z,28.47
2019-03-27T23:50:41.792Z,35.43
2019-03-27T23:53:11.370Z,32.80
2019-03-27T23:55:40.827Z,29.07
2019-03-27T23:58:10.610Z,36.03
